createdAt,value
2018-07-24T00:00:04.665Z,18.71
2018-07-24T00:02:33.430Z,18.76
2018-07-24T00:05:02.255Z,18.68
2018-07-24T00:07:31.045Z,18.65
2018-07-24T00:10:01.540Z,18.68
2018-07-24T00:12:30.269Z,18.65
2018-07-24T00:14:58.975Z,18.76
2018-07-24T00:17:27.854Z,18.82
2018-07-24T00:19:56.659Z,18.80
2018-07-24T00:22:25.746Z,18.77
2018-07-24T00:24:54.438Z,18.77
2018-07-24T00:27:23.185Z,18.83
2018-07-24T00:29:52.095Z,18.80
2018-07-24T00:32:20.829Z,18.66
2018-07-24T00:34:49.563Z,18.54
2018-07-24T00:37:18.490Z,18.53
2018-07-24T00:39:47.653Z,18.55
2018-07-24T00:42:16.374Z,18.52
2018-07-24T00:44:45.092Z,18.49
2018-07-24T00:47:13.888Z,18.41
2018-07-24T00:49:42.639Z,18.41
2018-07-24T00:52:11.396Z,18.46
2018-07-24T00:54:40.207Z,18.47
2018-07-24T00:57:08.942Z,18.54
2018-07-24T00:59:37.701Z,18.51
2018-07-24T01:02:06.486Z,18.49
2018-07-24T01:04:35.363Z,18.49
2018-07-24T01:07:04.260Z,18.51
2018-07-24T01:09:33.015Z,18.51
2018-07-24T01:12:01.732Z,18.56
2018-07-24T01:14:30.519Z,18.47
2018-07-24T01:16:59.238Z,18.48
2018-07-24T01:19:28.521Z,18.53
2018-07-24T01:21:57.259Z,18.51
2018-07-24T01:24:26.020Z,18.53
2018-07-24T01:26:54.814Z,18.59
2018-07-24T01:29:23.555Z,18.58
2018-07-24T01:31:52.354Z,18.58
2018-07-24T01:34:21.610Z,18.58
2018-07-24T01:36:50.301Z,18.56
2018-07-24T01:39:19.015Z,18.53
2018-07-24T01:41:47.825Z,18.52
2018-07-24T01:44:16.593Z,18.52
2018-07-24T01:46:45.336Z,18.54
2018-07-24T01:49:14.107Z,18.52
2018-07-24T01:51:42.842Z,18.54
2018-07-24T01:54:11.604Z,18.67
2018-07-24T01:56:40.353Z,18.72
2018-07-24T01:59:09.118Z,18.76
2018-07-24T02:01:37.908Z,18.75
2018-07-24T02:04:06.665Z,18.80
2018-07-24T02:06:35.462Z,18.73
2018-07-24T02:09:06.033Z,18.66
2018-07-24T02:11:34.755Z,18.59
2018-07-24T02:14:03.510Z,18.57
2018-07-24T02:16:32.192Z,18.54
2018-07-24T02:19:01.165Z,18.58
2018-07-24T02:21:30.410Z,18.54
2018-07-24T02:23:59.178Z,18.46
2018-07-24T02:26:27.934Z,18.46
2018-07-24T02:28:56.658Z,18.42
2018-07-24T02:31:25.441Z,18.44
2018-07-24T02:33:54.203Z,18.52
2018-07-24T02:36:22.955Z,18.46
2018-07-24T02:38:51.741Z,18.51
2018-07-24T02:41:20.474Z,18.51
2018-07-24T02:43:49.570Z,18.47
2018-07-24T02:46:18.291Z,18.49
2018-07-24T02:48:47.033Z,18.53
2018-07-24T02:51:15.872Z,18.52
2018-07-24T02:53:45.052Z,18.57
2018-07-24T02:56:13.746Z,18.56
2018-07-24T02:58:42.470Z,18.59
2018-07-24T03:01:11.233Z,18.61
2018-07-24T03:03:40.009Z,18.61
2018-07-24T03:06:08.742Z,18.55
2018-07-24T03:08:37.471Z,18.55
2018-07-24T03:11:06.272Z,18.59
2018-07-24T03:13:35.103Z,18.56
2018-07-24T03:16:03.953Z,18.63
2018-07-24T03:18:32.694Z,18.64
2018-07-24T03:21:01.512Z,18.64
2018-07-24T03:23:30.325Z,18.69
2018-07-24T03:25:59.104Z,18.69
2018-07-24T03:28:27.859Z,18.66
2018-07-24T03:30:56.683Z,18.64
2018-07-24T03:33:25.459Z,18.62
2018-07-24T03:35:54.260Z,18.67
2018-07-24T03:38:23.035Z,18.68
2018-07-24T03:40:51.987Z,18.67
2018-07-24T03:43:20.740Z,18.63
2018-07-24T03:45:49.469Z,18.63
2018-07-24T03:48:18.306Z,18.58
2018-07-24T03:50:47.104Z,18.68
2018-07-24T03:53:15.839Z,18.76
2018-07-24T03:55:44.676Z,18.69
2018-07-24T03:58:13.487Z,18.67
2018-07-24T04:00:42.337Z,18.63
2018-07-24T04:03:11.074Z,18.61
2018-07-24T04:05:39.858Z,18.65
2018-07-24T04:08:08.621Z,18.62
2018-07-24T04:10:37.480Z,18.64
2018-07-24T04:13:06.239Z,18.67
2018-07-24T04:15:35.201Z,18.71
2018-07-24T04:18:04.029Z,18.79
2018-07-24T04:20:32.743Z,18.79
2018-07-24T04:23:01.485Z,18.73
2018-07-24T04:25:30.185Z,18.66
2018-07-24T04:27:58.903Z,18.68
2018-07-24T04:30:27.618Z,18.72
2018-07-24T04:32:56.303Z,18.74
2018-07-24T04:35:25.056Z,18.77
2018-07-24T04:37:53.802Z,18.77
2018-07-24T04:40:22.551Z,18.76
2018-07-24T04:42:51.656Z,18.73
2018-07-24T04:45:20.374Z,18.76
2018-07-24T04:47:49.117Z,18.80
2018-07-24T04:50:17.945Z,18.85
2018-07-24T04:52:46.765Z,18.80
2018-07-24T04:57:43.277Z,18.80
2018-07-24T05:00:12.246Z,18.87
2018-07-24T05:02:41.048Z,18.88
2018-07-24T05:05:10.414Z,18.93
2018-07-24T05:07:39.147Z,18.97
2018-07-24T05:10:07.947Z,18.95
2018-07-24T05:12:36.673Z,18.94
2018-07-24T05:15:05.513Z,18.97
2018-07-24T05:17:34.328Z,19.07
2018-07-24T05:20:03.089Z,19.04
2018-07-24T05:22:31.857Z,19.18
2018-07-24T05:25:00.773Z,19.16
2018-07-24T05:27:29.655Z,19.16
2018-07-24T05:29:58.451Z,19.23
2018-07-24T05:32:27.194Z,19.19
2018-07-24T05:34:55.912Z,19.18
2018-07-24T05:37:24.676Z,19.19
2018-07-24T05:39:53.402Z,19.30
2018-07-24T05:42:22.381Z,19.28
2018-07-24T05:44:51.134Z,19.36
2018-07-24T05:47:19.887Z,19.45
2018-07-24T05:49:48.690Z,19.42
2018-07-24T05:52:17.564Z,19.42
2018-07-24T05:54:46.811Z,19.39
2018-07-24T05:57:15.707Z,19.45
2018-07-24T05:59:44.590Z,19.63
2018-07-24T06:02:13.839Z,19.77
2018-07-24T06:04:42.597Z,20.03
2018-07-24T06:07:11.327Z,20.04
2018-07-24T06:09:40.151Z,20.12
2018-07-24T06:12:08.878Z,20.18
2018-07-24T06:14:37.666Z,20.24
2018-07-24T06:17:06.445Z,20.25
2018-07-24T06:19:35.459Z,20.35
2018-07-24T06:22:04.525Z,20.35
2018-07-24T06:24:33.257Z,20.37
2018-07-24T06:27:02.034Z,20.32
2018-07-24T06:29:30.779Z,20.44
2018-07-24T06:31:59.554Z,20.44
2018-07-24T06:34:28.399Z,20.40
2018-07-24T06:36:57.286Z,20.51
2018-07-24T06:39:26.205Z,20.67
2018-07-24T06:41:55.083Z,20.85
2018-07-24T06:44:23.989Z,20.90
2018-07-24T06:46:52.923Z,20.95
2018-07-24T06:49:21.638Z,21.12
2018-07-24T06:51:50.536Z,21.13
2018-07-24T06:54:19.456Z,21.11
2018-07-24T06:56:48.245Z,21.23
2018-07-24T06:59:17.037Z,21.52
2018-07-24T07:01:45.771Z,21.56
2018-07-24T07:04:14.522Z,21.39
2018-07-24T07:06:43.254Z,21.38
2018-07-24T07:09:12.041Z,21.33
2018-07-24T07:11:40.846Z,21.36
2018-07-24T07:14:09.665Z,21.34
2018-07-24T07:16:38.542Z,21.27
2018-07-24T07:19:07.375Z,21.35
2018-07-24T07:21:36.176Z,21.23
2018-07-24T07:24:05.099Z,21.23
2018-07-24T07:26:33.869Z,21.08
2018-07-24T07:29:03.072Z,21.07
2018-07-24T07:31:32.023Z,21.17
2018-07-24T07:34:00.778Z,21.20
2018-07-24T07:36:29.659Z,21.22
2018-07-24T07:38:58.408Z,21.22
2018-07-24T07:41:27.200Z,21.18
2018-07-24T07:44:02.447Z,21.25
2018-07-24T07:46:31.556Z,21.25
2018-07-24T07:49:00.388Z,21.36
2018-07-24T07:51:29.240Z,21.52
2018-07-24T07:53:58.936Z,21.58
2018-07-24T07:56:27.721Z,21.64
2018-07-24T07:58:56.499Z,21.71
2018-07-24T08:01:25.299Z,21.82
2018-07-24T08:03:54.097Z,21.85
2018-07-24T08:06:23.018Z,22.11
2018-07-24T08:08:51.742Z,22.20
2018-07-24T08:11:20.474Z,22.34
2018-07-24T08:13:49.304Z,22.33
2018-07-24T08:16:18.101Z,22.38
2018-07-24T08:18:46.837Z,22.33
2018-07-24T08:21:15.606Z,22.42
2018-07-24T08:23:44.401Z,22.40
2018-07-24T08:26:13.133Z,22.52
2018-07-24T08:28:41.899Z,22.49
2018-07-24T08:31:10.685Z,22.47
2018-07-24T08:33:39.512Z,22.75
2018-07-24T08:36:08.335Z,22.91
2018-07-24T08:38:37.116Z,22.98
2018-07-24T08:41:06.055Z,23.21
2018-07-24T08:43:34.825Z,23.28
2018-07-24T08:46:03.688Z,23.50
2018-07-24T08:48:32.744Z,23.65
2018-07-24T08:51:01.574Z,24.02
2018-07-24T08:53:30.616Z,24.04
2018-07-24T08:55:59.357Z,24.06
2018-07-24T08:58:28.162Z,24.00
2018-07-24T09:00:57.032Z,23.89
2018-07-24T09:03:26.264Z,23.88
2018-07-24T09:05:56.073Z,23.94
2018-07-24T09:08:24.834Z,23.97
2018-07-24T09:10:53.602Z,23.87
2018-07-24T09:13:22.363Z,23.80
2018-07-24T09:15:51.102Z,23.82
2018-07-24T09:18:19.858Z,23.88
2018-07-24T09:20:48.720Z,23.96
2018-07-24T09:23:17.604Z,24.14
2018-07-24T09:25:46.424Z,23.96
2018-07-24T09:28:15.139Z,23.95
2018-07-24T09:30:43.984Z,24.10
2018-07-24T09:33:12.758Z,24.31
2018-07-24T09:35:41.485Z,24.47
2018-07-24T09:38:10.228Z,24.75
2018-07-24T09:40:38.984Z,25.18
2018-07-24T09:43:07.828Z,25.35
2018-07-24T09:45:36.619Z,25.58
2018-07-24T09:48:05.560Z,25.65
2018-07-24T09:50:34.422Z,25.37
2018-07-24T09:53:03.392Z,25.18
2018-07-24T09:55:32.163Z,24.89
2018-07-24T09:58:00.921Z,24.74
2018-07-24T10:00:34.824Z,24.94
2018-07-24T10:03:03.702Z,25.01
2018-07-24T10:05:32.452Z,25.19
2018-07-24T10:08:01.238Z,25.08
2018-07-24T10:10:30.002Z,25.37
2018-07-24T10:12:58.822Z,25.46
2018-07-24T10:15:28.182Z,25.62
2018-07-24T10:17:57.193Z,25.92
2018-07-24T10:20:25.923Z,26.10
2018-07-24T10:22:54.630Z,25.93
2018-07-24T10:25:23.485Z,26.08
2018-07-24T10:27:52.235Z,26.34
2018-07-24T10:30:22.093Z,26.33
2018-07-24T10:32:51.004Z,26.35
2018-07-24T10:35:19.874Z,26.54
2018-07-24T10:37:48.635Z,26.55
2018-07-24T10:40:17.387Z,26.46
2018-07-24T10:42:46.595Z,26.49
2018-07-24T10:45:15.683Z,26.54
2018-07-24T10:47:44.448Z,26.65
2018-07-24T10:50:13.322Z,26.74
2018-07-24T10:52:42.626Z,26.99
2018-07-24T10:55:11.413Z,27.00
2018-07-24T10:57:40.271Z,27.05
2018-07-24T11:00:09.256Z,27.02
2018-07-24T11:02:38.017Z,26.89
2018-07-24T11:05:06.819Z,26.73
2018-07-24T11:07:35.772Z,26.73
2018-07-24T11:10:04.976Z,26.95
2018-07-24T11:12:34.460Z,26.90
2018-07-24T11:15:03.882Z,26.83
2018-07-24T11:17:33.451Z,26.56
2018-07-24T11:20:02.346Z,26.43
2018-07-24T11:22:31.265Z,26.13
2018-07-24T11:25:00.182Z,26.05
2018-07-24T11:27:29.010Z,26.03
2018-07-24T11:29:58.457Z,26.05
2018-07-24T11:32:27.273Z,25.89
2018-07-24T11:34:56.047Z,26.00
2018-07-24T11:37:24.801Z,26.24
2018-07-24T11:39:53.718Z,26.42
2018-07-24T11:42:22.707Z,26.53
2018-07-24T11:44:51.539Z,26.70
2018-07-24T11:47:20.386Z,26.89
2018-07-24T11:49:49.091Z,26.86
2018-07-24T11:52:18.249Z,26.77
2018-07-24T11:54:47.059Z,26.76
2018-07-24T11:57:15.982Z,26.53
2018-07-24T11:59:44.809Z,26.31
2018-07-24T12:02:13.665Z,26.27
2018-07-24T12:04:42.537Z,26.09
2018-07-24T12:07:11.602Z,25.84
2018-07-24T12:09:40.731Z,25.59
2018-07-24T12:12:09.586Z,25.43
2018-07-24T12:14:38.529Z,25.36
2018-07-24T12:17:08.149Z,25.23
2018-07-24T12:19:37.224Z,25.21
2018-07-24T12:22:06.329Z,25.15
2018-07-24T12:24:35.194Z,24.98
2018-07-24T12:27:06.904Z,25.08
2018-07-24T12:29:35.856Z,25.00
2018-07-24T12:32:04.755Z,25.01
2018-07-24T12:34:33.700Z,24.83
2018-07-24T12:37:02.719Z,24.70
2018-07-24T12:39:31.616Z,24.15
2018-07-24T12:42:00.890Z,23.74
2018-07-24T12:44:29.759Z,23.23
2018-07-24T12:46:58.576Z,22.96
2018-07-24T12:49:27.395Z,22.79
2018-07-24T12:51:56.354Z,22.68
2018-07-24T12:54:25.312Z,22.61
2018-07-24T12:56:54.287Z,22.76
2018-07-24T12:59:23.432Z,22.82
2018-07-24T13:01:52.473Z,22.96
2018-07-24T13:04:21.387Z,23.00
2018-07-24T13:06:50.321Z,22.96
2018-07-24T13:09:19.229Z,22.56
2018-07-24T13:11:48.122Z,22.67
2018-07-24T13:14:17.001Z,22.82
2018-07-24T13:16:45.828Z,22.78
2018-07-24T13:19:14.696Z,22.70
2018-07-24T13:21:43.514Z,22.76
2018-07-24T13:24:12.330Z,22.65
2018-07-24T13:26:41.165Z,22.65
2018-07-24T13:29:10.101Z,22.72
2018-07-24T13:31:38.972Z,22.84
2018-07-24T13:34:07.872Z,22.92
2018-07-24T13:36:36.752Z,23.00
2018-07-24T13:39:08.496Z,23.04
2018-07-24T13:41:37.317Z,23.17
2018-07-24T13:44:06.341Z,23.31
2018-07-24T13:46:35.120Z,23.38
2018-07-24T13:49:04.305Z,23.30
2018-07-24T13:51:33.178Z,23.48
2018-07-24T13:54:02.962Z,23.40
2018-07-24T13:56:31.744Z,23.52
2018-07-24T13:59:00.675Z,23.62
2018-07-24T14:01:29.609Z,23.98
2018-07-24T14:03:59.209Z,24.25
2018-07-24T14:06:28.137Z,24.48
2018-07-24T14:08:56.942Z,24.47
2018-07-24T14:11:25.811Z,24.53
2018-07-24T14:13:54.634Z,24.52
2018-07-24T14:16:23.597Z,24.27
2018-07-24T14:18:52.821Z,24.43
2018-07-24T14:21:21.616Z,24.48
2018-07-24T14:23:50.476Z,24.80
2018-07-24T14:26:19.477Z,24.97
2018-07-24T14:28:48.282Z,25.32
2018-07-24T14:31:17.261Z,25.48
2018-07-24T14:33:46.132Z,25.43
2018-07-24T14:36:14.982Z,25.54
2018-07-24T14:38:43.905Z,25.68
2018-07-24T14:41:12.760Z,25.80
2018-07-24T14:43:41.817Z,25.70
2018-07-24T14:46:10.657Z,25.61
2018-07-24T14:48:41.138Z,25.70
2018-07-24T14:51:10.154Z,25.72
2018-07-24T14:53:39.037Z,25.60
2018-07-24T14:56:07.909Z,25.67
2018-07-24T14:58:36.743Z,25.66
2018-07-24T15:01:05.694Z,25.70
2018-07-24T15:03:34.564Z,25.50
2018-07-24T15:06:03.329Z,25.34
2018-07-24T15:08:32.206Z,25.17
2018-07-24T15:11:00.948Z,25.14
2018-07-24T15:13:29.733Z,25.02
2018-07-24T15:15:59.037Z,24.88
2018-07-24T15:18:27.748Z,24.65
2018-07-24T15:20:56.616Z,24.52
2018-07-24T15:23:25.393Z,24.32
2018-07-24T15:25:54.165Z,24.16
2018-07-24T15:28:23.043Z,24.21
2018-07-24T15:30:51.804Z,24.13
2018-07-24T15:33:20.634Z,24.04
2018-07-24T15:35:49.509Z,23.76
2018-07-24T15:38:18.397Z,23.56
2018-07-24T15:40:47.606Z,23.54
2018-07-24T15:43:17.208Z,23.31
2018-07-24T15:45:46.094Z,23.20
2018-07-24T15:48:14.924Z,23.17
2018-07-24T15:50:43.827Z,23.10
2018-07-24T15:53:12.696Z,23.11
2018-07-24T15:55:41.548Z,22.98
2018-07-24T15:58:10.414Z,22.83
2018-07-24T16:00:39.367Z,22.82
2018-07-24T16:03:08.223Z,22.78
2018-07-24T16:05:43.582Z,22.75
2018-07-24T16:08:12.374Z,22.58
2018-07-24T16:10:41.158Z,22.65
2018-07-24T16:13:09.965Z,22.66
2018-07-24T16:15:40.129Z,22.67
2018-07-24T16:18:09.095Z,22.62
2018-07-24T16:20:38.185Z,22.59
2018-07-24T16:23:07.237Z,22.67
2018-07-24T16:25:36.010Z,22.66
2018-07-24T16:28:05.008Z,22.64
2018-07-24T16:30:33.837Z,22.65
2018-07-24T16:33:02.603Z,22.62
2018-07-24T16:35:31.371Z,22.51
2018-07-24T16:38:00.200Z,22.56
2018-07-24T16:40:29.110Z,22.52
2018-07-24T16:42:58.429Z,22.43
2018-07-24T16:45:27.310Z,22.41
2018-07-24T16:47:56.195Z,22.40
2018-07-24T16:50:25.017Z,22.43
2018-07-24T16:52:54.050Z,22.41
2018-07-24T16:55:22.864Z,22.37
2018-07-24T16:57:52.132Z,22.37
2018-07-24T17:00:21.149Z,22.25
2018-07-24T17:02:49.988Z,22.22
2018-07-24T17:05:18.983Z,22.25
2018-07-24T17:07:47.766Z,22.30
2018-07-24T17:10:16.581Z,22.34
2018-07-24T17:12:51.963Z,22.28
2018-07-24T17:15:20.810Z,22.17
2018-07-24T17:17:49.578Z,22.18
2018-07-24T17:20:18.333Z,22.15
2018-07-24T17:22:47.620Z,22.24
2018-07-24T17:25:16.495Z,22.29
2018-07-24T17:27:45.349Z,22.26
2018-07-24T17:30:15.066Z,22.20
2018-07-24T17:32:43.934Z,22.21
2018-07-24T17:35:12.874Z,22.23
2018-07-24T17:37:42.078Z,22.25
2018-07-24T17:40:10.936Z,22.25
2018-07-24T17:42:39.813Z,22.15
2018-07-24T17:45:08.665Z,22.11
2018-07-24T17:47:38.381Z,22.13
2018-07-24T17:50:07.642Z,22.08
2018-07-24T17:52:36.494Z,22.00
2018-07-24T17:55:05.712Z,21.92
2018-07-24T17:57:34.572Z,21.85
2018-07-24T18:00:05.366Z,21.79
2018-07-24T18:02:34.431Z,21.76
2018-07-24T18:05:03.308Z,21.71
2018-07-24T18:07:32.175Z,21.70
2018-07-24T18:10:01.557Z,21.73
2018-07-24T18:12:30.457Z,21.70
2018-07-24T18:14:59.409Z,21.68
2018-07-24T18:17:28.370Z,21.69
2018-07-24T18:19:57.474Z,21.70
2018-07-24T18:22:26.260Z,21.68
2018-07-24T18:24:55.026Z,21.69
2018-07-24T18:27:24.370Z,21.72
2018-07-24T18:29:53.250Z,21.72
2018-07-24T18:32:25.132Z,21.67
2018-07-24T18:34:54.306Z,21.67
2018-07-24T18:37:23.498Z,21.62
2018-07-24T18:39:54.854Z,21.57
2018-07-24T18:42:23.964Z,21.59
2018-07-24T18:44:52.773Z,21.64
2018-07-24T18:47:22.104Z,21.66
2018-07-24T18:49:51.172Z,21.64
2018-07-24T18:52:19.995Z,21.62
2018-07-24T18:54:48.925Z,21.51
2018-07-24T18:57:17.663Z,21.41
2018-07-24T18:59:46.448Z,21.32
2018-07-24T19:02:15.285Z,21.34
2018-07-24T19:04:44.474Z,21.30
2018-07-24T19:07:13.262Z,21.36
2018-07-24T19:09:42.088Z,21.31
2018-07-24T19:12:11.095Z,21.37
2018-07-24T19:14:39.871Z,21.39
2018-07-24T19:17:08.811Z,21.37
2018-07-24T19:19:42.531Z,21.36
2018-07-24T19:22:11.427Z,21.35
2018-07-24T19:24:40.229Z,21.34
2018-07-24T19:27:08.969Z,21.33
2018-07-24T19:29:37.900Z,21.35
2018-07-24T19:32:07.088Z,21.34
2018-07-24T19:34:37.533Z,21.35
2018-07-24T19:37:06.305Z,21.37
2018-07-24T19:39:35.520Z,21.34
2018-07-24T19:42:04.329Z,21.28
2018-07-24T19:44:33.634Z,21.25
2018-07-24T19:47:02.452Z,21.23
2018-07-24T19:49:31.419Z,21.19
2018-07-24T19:52:00.329Z,21.17
2018-07-24T19:54:29.180Z,21.12
2018-07-24T19:56:57.981Z,21.04
2018-07-24T19:59:26.845Z,21.01
2018-07-24T20:01:55.638Z,21.01
2018-07-24T20:04:24.808Z,21.02
2018-07-24T20:06:53.637Z,21.07
2018-07-24T20:09:22.847Z,21.08
2018-07-24T20:11:51.644Z,21.00
2018-07-24T20:14:20.489Z,21.06
2018-07-24T20:16:49.293Z,21.02
2018-07-24T20:19:18.011Z,20.93
2018-07-24T20:21:46.978Z,20.92
2018-07-24T20:24:15.823Z,20.99
2018-07-24T20:26:44.574Z,20.97
2018-07-24T20:29:13.358Z,20.97
2018-07-24T20:31:42.535Z,20.90
2018-07-24T20:34:11.381Z,20.84
2018-07-24T20:36:40.224Z,20.82
2018-07-24T20:39:10.968Z,20.88
2018-07-24T20:41:40.158Z,20.85
2018-07-24T20:44:09.409Z,20.76
2018-07-24T20:46:38.153Z,20.71
2018-07-24T20:49:07.128Z,20.66
2018-07-24T20:51:36.033Z,20.67
2018-07-24T20:54:04.817Z,20.63
2018-07-24T20:56:34.058Z,20.66
2018-07-24T20:59:03.038Z,20.60
2018-07-24T21:01:31.909Z,20.68
2018-07-24T21:04:00.837Z,20.69
2018-07-24T21:06:29.647Z,20.73
2018-07-24T21:08:58.498Z,20.68
2018-07-24T21:11:27.313Z,20.66
2018-07-24T21:13:56.138Z,20.68
2018-07-24T21:16:24.948Z,20.64
2018-07-24T21:18:53.825Z,20.64
2018-07-24T21:21:22.624Z,20.63
2018-07-24T21:23:51.510Z,20.62
2018-07-24T21:26:20.299Z,20.57
2018-07-24T21:28:49.053Z,20.58
2018-07-24T21:31:17.875Z,20.60
2018-07-24T21:33:46.653Z,20.59
2018-07-24T21:36:15.431Z,20.61
2018-07-24T21:38:44.213Z,20.60
2018-07-24T21:41:13.004Z,20.56
2018-07-24T21:43:41.777Z,20.55
2018-07-24T21:46:10.542Z,20.55
2018-07-24T21:48:39.336Z,20.57
2018-07-24T21:51:08.091Z,20.54
2018-07-24T21:53:36.975Z,20.47
2018-07-24T21:56:05.743Z,20.49
2018-07-24T21:58:34.514Z,20.48
2018-07-24T22:01:10.900Z,20.47
2018-07-24T22:03:39.688Z,20.44
2018-07-24T22:06:08.911Z,20.47
2018-07-24T22:08:37.984Z,20.42
2018-07-24T22:11:07.274Z,20.39
2018-07-24T22:13:36.594Z,20.34
2018-07-24T22:16:05.456Z,20.35
2018-07-24T22:18:34.306Z,20.32
2018-07-24T22:21:03.051Z,20.30
2018-07-24T22:23:31.804Z,20.23
2018-07-24T22:26:00.568Z,20.25
2018-07-24T22:28:29.357Z,20.32
2018-07-24T22:30:58.175Z,20.28
2018-07-24T22:33:27.290Z,20.31
2018-07-24T22:35:56.071Z,20.27
2018-07-24T22:38:24.834Z,20.27
2018-07-24T22:40:53.595Z,20.30
2018-07-24T22:43:22.356Z,20.33
2018-07-24T22:45:51.138Z,20.30
2018-07-24T22:48:19.978Z,20.30
2018-07-24T22:50:48.756Z,20.35
2018-07-24T22:53:17.539Z,20.34
2018-07-24T22:55:46.278Z,20.34
2018-07-24T22:58:14.995Z,20.27
2018-07-24T23:00:43.949Z,20.22
2018-07-24T23:03:12.697Z,20.24
2018-07-24T23:05:41.467Z,20.28
2018-07-24T23:08:10.170Z,20.29
2018-07-24T23:10:38.962Z,20.34
2018-07-24T23:13:08.114Z,20.35
2018-07-24T23:15:36.936Z,20.34
2018-07-24T23:18:05.965Z,20.30
2018-07-24T23:20:34.669Z,20.31
2018-07-24T23:23:03.435Z,20.28
2018-07-24T23:25:32.200Z,20.31
2018-07-24T23:28:00.970Z,20.40
2018-07-24T23:30:29.784Z,20.39
2018-07-24T23:32:58.534Z,20.32
2018-07-24T23:35:27.238Z,20.35
2018-07-24T23:37:56.048Z,20.32
2018-07-24T23:40:24.836Z,20.36
2018-07-24T23:42:53.572Z,20.39
2018-07-24T23:45:22.367Z,20.33
2018-07-24T23:47:51.141Z,20.27
2018-07-24T23:50:19.885Z,20.26
2018-07-24T23:52:48.653Z,20.27
2018-07-24T23:55:17.394Z,20.36
2018-07-24T23:57:46.527Z,20.40
